createdAt,value
2023-05-06T00:00:22.578Z,95.61
2023-05-06T00:02:49.588Z,95.83
2023-05-06T00:05:18.571Z,96.29
2023-05-06T00:07:46.393Z,96.17
2023-05-06T00:10:13.442Z,95.75
2023-05-06T00:12:39.940Z,95.60
2023-05-06T00:15:07.454Z,95.74
2023-05-06T00:17:34.393Z,95.49
2023-05-06T00:20:03.664Z,95.59
2023-05-06T00:22:30.170Z,96.13
2023-05-06T00:24:56.711Z,95.56
2023-05-06T00:27:23.272Z,96.15
2023-05-06T00:29:49.952Z,95.84
2023-05-06T00:32:21.860Z,96.04
2023-05-06T00:34:48.405Z,96.37
2023-05-06T00:37:14.936Z,96.61
2023-05-06T00:39:41.653Z,95.68
2023-05-06T00:42:08.174Z,96.19
2023-05-06T00:44:34.695Z,95.47
2023-05-06T00:47:01.920Z,95.70
2023-05-06T00:49:30.098Z,95.94
2023-05-06T00:51:57.674Z,96.20
2023-05-06T00:54:27.722Z,96.51
2023-05-06T00:56:54.588Z,95.40
2023-05-06T00:59:23.635Z,96.03
2023-05-06T01:01:52.160Z,96.07
2023-05-06T01:04:18.724Z,95.87
2023-05-06T01:07:16.325Z,96.38
2023-05-06T01:09:53.578Z,96.21
2023-05-06T01:12:38.785Z,96.01
2023-05-06T01:15:41.565Z,95.96
2023-05-06T01:18:20.861Z,96.25
2023-05-06T01:20:53.625Z,95.74
2023-05-06T01:23:20.738Z,95.90
2023-05-06T01:25:47.341Z,95.87
2023-05-06T01:28:14.267Z,96.17
2023-05-06T01:30:52.337Z,95.57
2023-05-06T01:33:42.381Z,95.60
2023-05-06T01:36:21.241Z,96.23
2023-05-06T01:38:47.604Z,95.74
2023-05-06T01:41:16.336Z,95.86
2023-05-06T01:43:46.317Z,96.07
2023-05-06T01:46:18.923Z,96.01
2023-05-06T01:48:49.573Z,95.59
2023-05-06T01:51:16.118Z,96.33
2023-05-06T01:53:42.815Z,96.62
2023-05-06T01:56:09.561Z,96.31
2023-05-06T01:58:36.148Z,96.64
2023-05-06T02:01:02.770Z,96.41
2023-05-06T02:03:31.225Z,96.53
2023-05-06T02:05:57.825Z,96.47
2023-05-06T02:08:24.339Z,96.40
2023-05-06T02:10:51.161Z,96.21
2023-05-06T02:13:18.789Z,96.53
2023-05-06T02:15:46.345Z,96.10
2023-05-06T02:18:12.822Z,96.08
2023-05-06T02:20:40.791Z,95.95
2023-05-06T02:23:07.311Z,96.00
2023-05-06T02:25:33.826Z,96.53
2023-05-06T02:28:00.376Z,96.22
2023-05-06T02:30:26.860Z,96.47
2023-05-06T02:32:53.428Z,96.20
2023-05-06T02:35:21.037Z,95.89
2023-05-06T02:37:47.584Z,96.67
2023-05-06T02:40:14.370Z,96.04
2023-05-06T02:42:40.876Z,96.15
2023-05-06T02:45:11.048Z,96.21
2023-05-06T02:47:38.032Z,96.42
2023-05-06T02:50:04.877Z,96.60
2023-05-06T02:52:32.616Z,96.57
2023-05-06T02:54:59.125Z,96.58
2023-05-06T02:57:25.769Z,96.42
2023-05-06T02:59:52.329Z,96.22
2023-05-06T03:02:18.872Z,96.47
2023-05-06T03:04:45.416Z,96.28
2023-05-06T03:07:13.119Z,96.49
2023-05-06T03:09:42.786Z,96.41
2023-05-06T03:12:09.320Z,96.52
2023-05-06T03:14:35.983Z,96.54
2023-05-06T03:17:03.513Z,96.40
2023-05-06T03:19:30.057Z,96.42
2023-05-06T03:21:56.575Z,96.77
2023-05-06T03:24:23.023Z,97.02
2023-05-06T03:26:49.617Z,96.16
2023-05-06T03:29:16.139Z,96.14
2023-05-06T03:31:42.725Z,96.16
2023-05-06T03:34:09.281Z,96.90
2023-05-06T03:36:35.871Z,96.45
2023-05-06T03:39:02.498Z,96.23
2023-05-06T03:41:29.900Z,96.65
2023-05-06T03:43:56.414Z,96.52
2023-05-06T03:46:22.971Z,96.63
2023-05-06T03:48:49.526Z,96.54
2023-05-06T03:51:16.169Z,96.41
2023-05-06T03:53:42.915Z,96.59
2023-05-06T03:56:09.693Z,96.67
2023-05-06T03:58:36.165Z,96.48
2023-05-06T04:01:02.857Z,96.51
2023-05-06T04:03:29.420Z,96.24
2023-05-06T04:05:55.985Z,96.43
2023-05-06T04:08:22.491Z,96.64
2023-05-06T04:10:49.032Z,96.33
2023-05-06T04:13:15.851Z,96.29
2023-05-06T04:15:42.617Z,96.75
2023-05-06T04:18:09.288Z,96.49
2023-05-06T04:20:36.146Z,96.52
2023-05-06T04:23:03.179Z,96.92
2023-05-06T04:25:29.987Z,96.66
2023-05-06T04:27:56.823Z,96.50
2023-05-06T04:30:23.767Z,96.72
2023-05-06T04:32:50.505Z,96.51
2023-05-06T04:35:17.266Z,96.46
2023-05-06T04:37:44.480Z,96.75
2023-05-06T04:40:14.000Z,96.44
2023-05-06T04:42:40.762Z,96.66
2023-05-06T04:45:08.007Z,96.51
2023-05-06T04:47:35.164Z,96.63
2023-05-06T04:50:10.368Z,96.78
2023-05-06T04:52:37.592Z,96.46
2023-05-06T04:55:04.531Z,96.22
2023-05-06T04:57:31.860Z,96.48
2023-05-06T04:59:58.547Z,96.34
2023-05-06T05:02:25.214Z,96.75
2023-05-06T05:04:52.145Z,96.47
2023-05-06T05:07:19.022Z,96.47
2023-05-06T05:09:46.142Z,96.65
2023-05-06T05:12:13.529Z,96.76
2023-05-06T05:14:40.718Z,96.56
2023-05-06T05:17:07.838Z,96.86
2023-05-06T05:19:34.565Z,96.01
2023-05-06T05:22:01.497Z,96.82
2023-05-06T05:24:28.375Z,96.88
2023-05-06T05:26:57.497Z,96.78
2023-05-06T05:29:24.451Z,96.90
2023-05-06T05:31:51.258Z,96.41
2023-05-06T05:34:17.926Z,96.55
2023-05-06T05:36:44.613Z,96.21
2023-05-06T05:39:11.690Z,96.18
2023-05-06T05:41:38.675Z,96.61
2023-05-06T05:44:05.422Z,96.67
2023-05-06T05:47:00.253Z,96.30
2023-05-06T05:49:27.125Z,97.03
2023-05-06T05:51:53.831Z,96.44
2023-05-06T05:54:23.314Z,96.27
2023-05-06T05:56:52.766Z,96.83
2023-05-06T05:59:19.347Z,96.44
2023-05-06T06:01:46.210Z,96.37
2023-05-06T06:04:13.017Z,96.18
2023-05-06T06:06:41.740Z,96.63
2023-05-06T06:09:09.235Z,96.67
2023-05-06T06:11:35.903Z,96.65
2023-05-06T06:14:02.477Z,96.63
2023-05-06T06:16:29.346Z,96.06
2023-05-06T06:19:07.522Z,96.54
2023-05-06T06:21:34.106Z,96.05
2023-05-06T06:24:00.716Z,95.98
2023-05-06T06:26:27.370Z,96.42
2023-05-06T06:28:53.953Z,96.31
2023-05-06T06:31:20.643Z,96.18
2023-05-06T06:33:47.195Z,96.43
2023-05-06T06:36:13.804Z,96.42
2023-05-06T06:38:41.423Z,96.45
2023-05-06T06:41:08.336Z,96.62
2023-05-06T06:43:34.820Z,96.38
2023-05-06T06:46:01.706Z,96.05
2023-05-06T06:48:28.317Z,96.20
2023-05-06T06:50:54.905Z,96.07
2023-05-06T06:53:24.401Z,96.08
2023-05-06T06:55:51.136Z,96.06
2023-05-06T06:58:17.681Z,96.24
2023-05-06T07:00:44.248Z,95.63
2023-05-06T07:03:19.477Z,95.71
2023-05-06T07:05:46.244Z,95.80
2023-05-06T07:08:12.813Z,95.72
2023-05-06T07:10:39.367Z,95.30
2023-05-06T07:13:06.018Z,95.73
2023-05-06T07:15:35.994Z,95.71
2023-05-06T07:18:04.268Z,95.73
2023-05-06T07:20:30.846Z,95.10
2023-05-06T07:22:57.463Z,95.44
2023-05-06T07:25:24.234Z,94.64
2023-05-06T07:27:50.862Z,94.71
2023-05-06T07:30:21.708Z,94.51
2023-05-06T07:32:49.582Z,94.35
2023-05-06T07:35:16.312Z,94.71
2023-05-06T07:37:42.928Z,94.75
2023-05-06T07:40:09.869Z,94.43
2023-05-06T07:42:36.724Z,94.62
2023-05-06T07:45:03.744Z,93.06
2023-05-06T07:47:33.493Z,93.63
2023-05-06T07:50:00.584Z,93.68
2023-05-06T07:52:27.716Z,93.21
2023-05-06T07:54:54.570Z,92.00
2023-05-06T07:57:21.257Z,90.12
2023-05-06T07:59:49.446Z,92.05
2023-05-06T08:02:16.378Z,91.03
2023-05-06T08:04:43.572Z,89.61
2023-05-06T08:07:12.895Z,90.62
2023-05-06T08:09:39.609Z,89.55
2023-05-06T08:12:06.452Z,90.53
2023-05-06T08:14:33.015Z,87.17
2023-05-06T08:16:59.527Z,90.42
2023-05-06T08:19:26.816Z,88.49
2023-05-06T08:21:53.549Z,89.51
2023-05-06T08:24:20.914Z,87.91
2023-05-06T08:26:47.410Z,87.28
2023-05-06T08:29:14.065Z,85.16
2023-05-06T08:31:40.883Z,83.97
2023-05-06T08:34:07.635Z,83.27
2023-05-06T08:36:34.296Z,84.30
2023-05-06T08:39:00.897Z,82.04
2023-05-06T08:41:30.694Z,84.38
2023-05-06T08:43:58.359Z,83.91
2023-05-06T08:46:25.490Z,83.58
2023-05-06T08:48:53.098Z,83.25
2023-05-06T08:51:26.226Z,81.28
2023-05-06T08:53:54.987Z,84.02
2023-05-06T08:56:28.818Z,84.95
2023-05-06T08:58:56.340Z,84.43
2023-05-06T09:01:23.290Z,82.06
2023-05-06T09:03:50.712Z,82.03
2023-05-06T09:06:19.647Z,81.06
2023-05-06T09:08:46.246Z,83.45
2023-05-06T09:11:22.020Z,85.53
2023-05-06T09:13:48.793Z,82.15
2023-05-06T09:16:32.906Z,87.42
2023-05-06T09:18:59.638Z,82.99
2023-05-06T09:21:38.335Z,83.78
2023-05-06T09:24:06.536Z,82.84
2023-05-06T09:26:35.120Z,77.26
2023-05-06T09:29:02.319Z,80.49
2023-05-06T09:31:29.793Z,81.86
2023-05-06T09:33:57.995Z,77.15
2023-05-06T09:36:26.179Z,75.06
2023-05-06T09:38:54.017Z,79.88
2023-05-06T09:41:22.977Z,78.33
2023-05-06T09:43:51.067Z,77.27
2023-05-06T09:46:18.015Z,73.81
2023-05-06T09:48:45.977Z,75.05
2023-05-06T09:51:13.311Z,74.07
2023-05-06T09:53:39.941Z,76.66
2023-05-06T09:56:07.817Z,79.17
2023-05-06T09:58:35.357Z,72.51
2023-05-06T10:01:04.166Z,70.22
2023-05-06T10:03:35.050Z,75.96
2023-05-06T10:06:03.007Z,72.24
2023-05-06T10:08:29.608Z,70.37
2023-05-06T10:10:56.972Z,65.96
2023-05-06T10:13:26.454Z,63.21
2023-05-06T10:15:53.364Z,62.58
2023-05-06T10:18:21.657Z,63.77
2023-05-06T10:20:49.441Z,65.44
2023-05-06T10:23:29.142Z,68.04
2023-05-06T10:25:57.494Z,59.06
2023-05-06T10:28:31.831Z,63.50
2023-05-06T10:30:58.974Z,60.49
2023-05-06T10:33:26.352Z,60.49
2023-05-06T10:36:21.544Z,64.92
2023-05-06T10:39:03.617Z,62.49
2023-05-06T10:41:31.743Z,58.37
2023-05-06T10:43:59.449Z,57.54
2023-05-06T10:46:27.875Z,58.86
2023-05-06T10:49:04.648Z,59.53
2023-05-06T10:51:34.761Z,58.66
2023-05-06T10:54:11.062Z,60.34
2023-05-06T10:56:39.227Z,52.71
2023-05-06T10:59:12.880Z,55.70
2023-05-06T11:01:44.939Z,54.49
2023-05-06T11:04:13.934Z,54.07
2023-05-06T11:06:43.234Z,53.17
2023-05-06T11:09:17.899Z,52.72
2023-05-06T11:11:51.716Z,54.44
2023-05-06T11:14:40.480Z,59.12
2023-05-06T11:17:31.568Z,58.41
2023-05-06T11:20:22.212Z,59.41
2023-05-06T11:22:49.047Z,55.89
2023-05-06T11:25:41.985Z,59.94
2023-05-06T11:28:12.705Z,53.01
2023-05-06T11:30:44.129Z,53.76
2023-05-06T11:33:26.114Z,58.53
2023-05-06T11:35:53.158Z,54.62
2023-05-06T11:38:19.664Z,53.28
2023-05-06T11:40:48.933Z,52.82
2023-05-06T11:43:16.635Z,53.85
2023-05-06T11:45:50.861Z,48.10
2023-05-06T11:48:18.355Z,49.79
2023-05-06T11:50:47.262Z,49.04
2023-05-06T11:53:19.418Z,50.65
2023-05-06T11:55:47.299Z,50.35
2023-05-06T11:58:19.427Z,51.26
2023-05-06T12:00:51.331Z,52.35
2023-05-06T12:03:19.618Z,51.74
2023-05-06T12:05:48.369Z,50.25
2023-05-06T12:08:34.961Z,52.46
2023-05-06T12:11:03.574Z,44.74
2023-05-06T12:13:30.941Z,44.38
2023-05-06T12:18:28.178Z,48.16
2023-05-06T12:20:56.020Z,49.09
2023-05-06T12:23:23.116Z,50.19
2023-05-06T12:26:07.479Z,50.78
2023-05-06T12:28:36.409Z,41.19
2023-05-06T12:31:26.152Z,43.00
2023-05-06T12:33:53.298Z,41.19
2023-05-06T12:36:20.528Z,42.22
2023-05-06T12:38:54.505Z,43.13
2023-05-06T12:41:23.212Z,43.06
2023-05-06T12:43:49.764Z,42.68
2023-05-06T12:46:17.652Z,42.94
2023-05-06T12:49:00.593Z,49.13
2023-05-06T12:51:28.839Z,43.33
2023-05-06T12:53:55.484Z,45.18
2023-05-06T12:56:25.331Z,45.48
2023-05-06T12:58:58.802Z,46.95
2023-05-06T13:01:28.698Z,47.20
2023-05-06T13:03:57.597Z,48.11
2023-05-06T13:06:24.498Z,47.57
2023-05-06T13:08:51.291Z,48.31
2023-05-06T13:11:17.856Z,48.36
2023-05-06T13:13:44.363Z,45.01
2023-05-06T13:16:10.922Z,45.64
2023-05-06T13:18:37.503Z,45.77
2023-05-06T13:21:04.085Z,44.06
2023-05-06T13:23:31.786Z,42.55
2023-05-06T13:26:04.694Z,44.08
2023-05-06T13:28:33.498Z,43.22
2023-05-06T13:31:00.116Z,42.95
2023-05-06T13:33:26.848Z,45.11
2023-05-06T13:35:53.470Z,45.93
2023-05-06T13:38:19.967Z,45.66
2023-05-06T13:40:51.986Z,44.02
2023-05-06T13:43:19.119Z,41.24
2023-05-06T13:45:45.786Z,39.60
2023-05-06T13:48:14.268Z,37.17
2023-05-06T13:50:45.994Z,35.08
2023-05-06T13:53:15.809Z,34.12
2023-05-06T13:55:43.325Z,34.25
2023-05-06T13:58:09.898Z,34.36
2023-05-06T14:00:36.462Z,32.83
2023-05-06T14:03:03.144Z,31.72
2023-05-06T14:05:32.575Z,30.28
2023-05-06T14:07:59.085Z,30.69
2023-05-06T14:10:25.543Z,29.99
2023-05-06T14:12:52.102Z,30.30
2023-05-06T14:15:18.713Z,30.21
2023-05-06T14:17:45.197Z,29.71
2023-05-06T14:20:11.959Z,29.30
2023-05-06T14:22:41.170Z,28.87
2023-05-06T14:25:13.613Z,31.21
2023-05-06T14:27:40.378Z,31.59
2023-05-06T14:32:48.122Z,32.99
2023-05-06T14:35:14.696Z,31.15
2023-05-06T14:37:41.131Z,27.69
2023-05-06T14:40:11.231Z,28.48
2023-05-06T14:42:37.947Z,28.75
2023-05-06T14:45:04.961Z,30.41
2023-05-06T14:47:31.503Z,30.50
2023-05-06T14:49:58.143Z,32.45
2023-05-06T14:52:24.924Z,32.43
2023-05-06T14:54:51.528Z,31.68
2023-05-06T14:57:18.284Z,32.36
2023-05-06T14:59:44.924Z,32.62
2023-05-06T15:02:11.509Z,33.83
2023-05-06T15:04:38.123Z,34.48
2023-05-06T15:07:04.697Z,36.18
2023-05-06T15:09:31.600Z,36.40
2023-05-06T15:11:58.354Z,36.58
2023-05-06T15:14:24.834Z,37.82
2023-05-06T15:16:55.807Z,38.56
2023-05-06T15:19:25.421Z,38.50
2023-05-06T15:21:51.904Z,41.06
2023-05-06T15:24:18.393Z,39.35
2023-05-06T15:26:45.209Z,41.03
2023-05-06T15:29:11.915Z,41.10
2023-05-06T15:31:40.620Z,41.21
2023-05-06T15:34:07.765Z,40.83
2023-05-06T15:36:34.239Z,41.13
2023-05-06T15:39:01.248Z,41.44
2023-05-06T15:41:30.664Z,41.30
2023-05-06T15:43:58.466Z,40.38
2023-05-06T15:46:26.244Z,41.68
2023-05-06T15:49:11.171Z,41.11
2023-05-06T15:51:40.381Z,41.53
2023-05-06T15:54:08.493Z,41.69
2023-05-06T15:56:40.638Z,42.30
2023-05-06T15:59:08.264Z,41.84
2023-05-06T16:02:00.692Z,42.02
2023-05-06T16:04:21.637Z,42.29
2023-05-06T16:06:49.037Z,42.50
2023-05-06T16:09:15.686Z,41.83
2023-05-06T16:11:42.218Z,42.27
2023-05-06T16:14:08.704Z,42.36
2023-05-06T16:16:35.257Z,41.75
2023-05-06T16:19:01.887Z,42.59
2023-05-06T16:21:28.665Z,42.73
2023-05-06T16:23:55.351Z,42.81
2023-05-06T16:26:27.655Z,43.08
2023-05-06T16:28:54.100Z,43.90
2023-05-06T16:31:20.883Z,44.21
2023-05-06T16:33:47.484Z,45.16
2023-05-06T16:36:13.985Z,43.80
2023-05-06T16:38:40.446Z,44.49
2023-05-06T16:41:07.148Z,44.38
2023-05-06T16:43:33.686Z,44.59
2023-05-06T16:46:00.326Z,44.84
2023-05-06T16:48:26.952Z,45.06
2023-05-06T16:50:53.478Z,46.11
2023-05-06T16:53:20.452Z,46.03
2023-05-06T16:55:48.814Z,45.89
2023-05-06T16:58:17.548Z,45.62
2023-05-06T17:00:44.418Z,46.73
2023-05-06T17:03:11.439Z,46.41
2023-05-06T17:05:38.253Z,46.01
2023-05-06T17:08:05.509Z,47.97
2023-05-06T17:10:32.179Z,47.63
2023-05-06T17:12:58.877Z,47.53
2023-05-06T17:15:27.035Z,47.55
2023-05-06T17:17:53.662Z,48.39
2023-05-06T17:20:20.839Z,48.81
2023-05-06T17:22:47.615Z,50.12
2023-05-06T17:25:14.824Z,49.86
2023-05-06T17:27:44.217Z,50.81
2023-05-06T17:30:15.053Z,50.61
2023-05-06T17:32:42.322Z,51.02
2023-05-06T17:35:09.757Z,51.13
2023-05-06T17:37:36.466Z,51.09
2023-05-06T17:40:03.976Z,51.99
2023-05-06T17:42:31.595Z,52.13
2023-05-06T17:44:58.183Z,54.54
2023-05-06T17:47:24.713Z,59.26
2023-05-06T17:49:54.355Z,62.68
2023-05-06T17:52:20.973Z,65.20
2023-05-06T17:55:05.832Z,67.44
2023-05-06T17:57:38.853Z,69.58
2023-05-06T18:00:10.340Z,71.21
2023-05-06T18:02:36.942Z,72.10
2023-05-06T18:05:03.677Z,72.93
2023-05-06T18:07:30.104Z,74.88
2023-05-06T18:09:56.640Z,76.40
2023-05-06T18:12:23.860Z,78.59
2023-05-06T18:14:50.622Z,79.54
2023-05-06T18:17:17.081Z,79.40
2023-05-06T18:19:43.573Z,80.00
2023-05-06T18:22:10.148Z,80.26
2023-05-06T18:24:37.313Z,80.90
2023-05-06T18:27:04.359Z,81.22
2023-05-06T18:29:32.581Z,80.83
2023-05-06T18:31:59.538Z,82.40
2023-05-06T18:34:25.979Z,82.27
2023-05-06T18:36:52.697Z,82.72
2023-05-06T18:39:19.417Z,83.63
2023-05-06T18:41:46.009Z,83.62
2023-05-06T18:44:12.802Z,83.31
2023-05-06T18:46:39.498Z,84.30
2023-05-06T18:49:06.700Z,84.12
2023-05-06T18:51:33.331Z,83.75
2023-05-06T18:53:59.964Z,84.17
2023-05-06T18:56:26.566Z,84.11
2023-05-06T18:58:53.216Z,84.21
2023-05-06T19:01:19.776Z,84.75
2023-05-06T19:03:46.836Z,83.58
2023-05-06T19:06:13.386Z,83.95
2023-05-06T19:08:40.242Z,83.14
2023-05-06T19:11:14.578Z,83.56
2023-05-06T19:13:44.988Z,83.94
2023-05-06T19:16:12.381Z,83.81
2023-05-06T19:18:39.108Z,83.69
2023-05-06T19:21:05.731Z,83.69
2023-05-06T19:23:32.819Z,83.29
2023-05-06T19:25:59.270Z,83.02
2023-05-06T19:28:27.093Z,83.45
2023-05-06T19:30:53.678Z,83.21
2023-05-06T19:33:20.352Z,84.09
2023-05-06T19:35:47.095Z,84.51
2023-05-06T19:38:13.489Z,84.41
2023-05-06T19:40:40.002Z,84.85
2023-05-06T19:43:07.065Z,85.21
2023-05-06T19:45:34.185Z,85.84
2023-05-06T19:48:01.274Z,86.06
2023-05-06T19:50:34.351Z,86.48
2023-05-06T19:53:00.796Z,86.73
2023-05-06T19:55:27.326Z,86.16
2023-05-06T19:57:56.824Z,86.09
2023-05-06T20:00:27.486Z,85.93
2023-05-06T20:02:57.043Z,86.36
2023-05-06T20:05:24.296Z,86.72
2023-05-06T20:07:51.253Z,86.85
2023-05-06T20:10:17.799Z,86.28
2023-05-06T20:12:44.331Z,86.55
2023-05-06T20:15:11.152Z,86.37
2023-05-06T20:17:38.093Z,86.63
2023-05-06T20:20:09.523Z,86.31
2023-05-06T20:22:37.143Z,86.56
2023-05-06T20:25:12.316Z,86.26
2023-05-06T20:27:41.050Z,86.19
2023-05-06T20:30:12.598Z,86.39
2023-05-06T20:32:43.079Z,86.37
2023-05-06T20:35:10.146Z,85.85
2023-05-06T20:37:36.868Z,85.58
2023-05-06T20:40:05.790Z,86.34
2023-05-06T20:42:34.977Z,86.05
2023-05-06T20:45:01.445Z,85.94
2023-05-06T20:47:28.077Z,86.25
2023-05-06T20:49:55.122Z,86.16
2023-05-06T20:52:22.036Z,86.67
2023-05-06T20:54:49.337Z,86.42
2023-05-06T20:57:16.881Z,87.21
2023-05-06T20:59:43.921Z,87.64
2023-05-06T21:02:10.689Z,87.43
2023-05-06T21:04:37.328Z,87.01
2023-05-06T21:07:03.809Z,86.60
2023-05-06T21:09:30.338Z,86.52
2023-05-06T21:11:57.202Z,86.73
2023-05-06T21:14:24.888Z,87.19
2023-05-06T21:16:52.154Z,87.35
2023-05-06T21:19:18.838Z,87.26
2023-05-06T21:21:45.742Z,87.40
2023-05-06T21:24:12.911Z,87.25
2023-05-06T21:26:42.624Z,88.14
2023-05-06T21:29:09.212Z,87.97
2023-05-06T21:31:35.748Z,88.09
2023-05-06T21:34:03.488Z,87.94
2023-05-06T21:36:29.979Z,87.63
2023-05-06T21:39:11.989Z,87.89
2023-05-06T21:41:40.516Z,87.79
2023-05-06T21:44:09.081Z,88.16
2023-05-06T21:46:37.157Z,88.22
2023-05-06T21:49:04.100Z,88.26
2023-05-06T21:51:35.931Z,88.78
2023-05-06T21:54:03.406Z,88.78
2023-05-06T21:56:30.254Z,88.69
2023-05-06T21:58:56.819Z,88.50
2023-05-06T22:01:26.176Z,88.61
2023-05-06T22:03:53.884Z,88.56
2023-05-06T22:06:20.658Z,88.78
2023-05-06T22:08:47.116Z,88.60
2023-05-06T22:11:16.536Z,88.79
2023-05-06T22:13:43.200Z,88.57
2023-05-06T22:16:09.827Z,89.23
2023-05-06T22:18:41.150Z,88.72
2023-05-06T22:21:08.623Z,89.22
2023-05-06T22:23:35.474Z,89.35
2023-05-06T22:26:01.934Z,89.32
2023-05-06T22:28:28.414Z,89.22
2023-05-06T22:30:56.560Z,89.32
2023-05-06T22:33:27.950Z,89.33
2023-05-06T22:35:55.506Z,88.67
2023-05-06T22:38:22.307Z,88.76
2023-05-06T22:40:48.859Z,89.00
2023-05-06T22:43:15.486Z,88.73
2023-05-06T22:45:41.933Z,88.50
2023-05-06T22:48:08.539Z,88.82
2023-05-06T22:50:35.271Z,88.57
2023-05-06T22:53:10.267Z,88.71
2023-05-06T22:55:40.887Z,88.57
2023-05-06T22:58:07.374Z,88.53
2023-05-06T23:00:33.906Z,88.30
2023-05-06T23:03:00.706Z,88.93
2023-05-06T23:05:27.217Z,89.06
2023-05-06T23:07:53.769Z,88.55
2023-05-06T23:10:20.292Z,88.68
2023-05-06T23:12:46.897Z,89.12
2023-05-06T23:15:13.561Z,88.99
2023-05-06T23:17:40.457Z,89.55
2023-05-06T23:20:09.074Z,89.43
2023-05-06T23:22:35.702Z,89.23
2023-05-06T23:25:02.288Z,89.36
2023-05-06T23:27:28.748Z,89.27
2023-05-06T23:29:55.315Z,89.45
2023-05-06T23:32:21.838Z,89.33
2023-05-06T23:34:49.156Z,89.19
2023-05-06T23:37:17.602Z,89.26
2023-05-06T23:39:44.187Z,89.06
2023-05-06T23:42:11.166Z,89.32
2023-05-06T23:44:37.712Z,89.06
2023-05-06T23:47:05.223Z,89.25
2023-05-06T23:49:32.245Z,89.40
2023-05-06T23:51:58.761Z,89.23
2023-05-06T23:54:25.726Z,89.44
2023-05-06T23:56:52.133Z,89.07
2023-05-06T23:59:18.931Z,89.18
